createdAt,value
2022-10-12T00:02:06.765Z,98595.28
2022-10-12T00:04:34.001Z,98594.91
2022-10-12T00:07:00.720Z,98597.16
2022-10-12T00:09:27.475Z,98596.38
2022-10-12T00:11:55.669Z,98592.06
2022-10-12T00:14:22.437Z,98590.03
2022-10-12T00:16:49.110Z,98593.56
2022-10-12T00:19:15.908Z,98599.94
2022-10-12T00:21:42.625Z,98603.03
2022-10-12T00:24:09.815Z,98600.41
2022-10-12T00:26:36.759Z,98599.59
2022-10-12T00:29:05.086Z,98602.09
2022-10-12T00:31:32.481Z,98604.34
2022-10-12T00:34:00.462Z,98597.13
2022-10-12T00:36:29.485Z,98599.19
2022-10-12T00:38:56.486Z,98590.84
2022-10-12T00:41:25.823Z,98596.19
2022-10-12T00:43:57.826Z,98599.91
2022-10-12T00:46:35.964Z,98594.94
2022-10-12T00:49:10.292Z,98601.97
2022-10-12T00:51:37.839Z,98597.47
2022-10-12T00:54:08.762Z,98594.56
2022-10-12T00:56:40.036Z,98590.88
2022-10-12T00:59:10.987Z,98588.28
2022-10-12T01:01:39.558Z,98590.56
2022-10-12T01:04:07.198Z,98588.69
2022-10-12T01:06:34.697Z,98594.03
2022-10-12T01:09:02.055Z,98593.63
2022-10-12T01:11:28.774Z,98598.75
2022-10-12T01:13:55.857Z,98597.56
2022-10-12T01:16:28.950Z,98597.19
2022-10-12T01:19:08.111Z,98592.06
2022-10-12T01:21:40.363Z,98592.06
2022-10-12T01:24:27.265Z,98599.47
2022-10-12T01:27:15.948Z,98596.56
2022-10-12T01:30:06.545Z,98593.31
2022-10-12T01:32:41.609Z,98587.38
2022-10-12T01:35:17.074Z,98591.28
2022-10-12T01:37:48.951Z,98579.38
2022-10-12T01:40:20.891Z,98585.34
2022-10-12T01:42:48.414Z,98584.13
2022-10-12T01:45:19.660Z,98583.53
2022-10-12T01:47:52.527Z,98573.69
2022-10-12T01:50:21.912Z,98578.59
2022-10-12T01:52:57.616Z,98581.88
2022-10-12T01:55:36.940Z,98581.72
2022-10-12T01:58:18.019Z,98569.16
2022-10-12T02:00:56.267Z,98573.88
2022-10-12T02:03:31.881Z,98571.06
2022-10-12T02:06:02.655Z,98571.50
2022-10-12T02:08:34.473Z,98569.25
2022-10-12T02:11:06.695Z,98568.59
2022-10-12T02:13:36.510Z,98562.22
2022-10-12T02:16:09.998Z,98562.66
2022-10-12T02:18:40.783Z,98556.31
2022-10-12T02:21:09.876Z,98552.81
2022-10-12T02:23:37.766Z,98552.81
2022-10-12T02:26:05.315Z,98547.31
2022-10-12T02:28:36.034Z,98548.75
2022-10-12T02:31:09.362Z,98547.13
2022-10-12T02:33:40.670Z,98539.31
2022-10-12T02:36:12.137Z,98544.44
2022-10-12T02:38:43.414Z,98533.34
2022-10-12T02:41:14.324Z,98541.59
2022-10-12T02:43:45.704Z,98553.25
2022-10-12T02:46:16.188Z,98550.41
2022-10-12T02:48:44.880Z,98550.22
2022-10-12T02:51:12.047Z,98537.91
2022-10-12T02:53:39.321Z,98537.69
2022-10-12T02:56:10.429Z,98532.34
2022-10-12T02:58:37.491Z,98533.38
2022-10-12T03:01:04.854Z,98536.88
2022-10-12T03:03:33.134Z,98536.91
2022-10-12T03:05:59.763Z,98542.22
2022-10-12T03:08:26.469Z,98541.44
2022-10-12T03:10:53.227Z,98540.00
2022-10-12T03:13:19.915Z,98542.66
2022-10-12T03:15:46.629Z,98537.53
2022-10-12T03:18:13.305Z,98535.25
2022-10-12T03:20:41.894Z,98537.53
2022-10-12T03:23:08.824Z,98538.97
2022-10-12T03:25:36.739Z,98535.66
2022-10-12T03:28:03.564Z,98538.53
2022-10-12T03:30:30.623Z,98536.09
2022-10-12T03:32:57.356Z,98529.75
2022-10-12T03:35:24.026Z,98519.28
2022-10-12T03:37:52.091Z,98529.56
2022-10-12T03:40:18.811Z,98532.84
2022-10-12T03:42:45.765Z,98527.69
2022-10-12T03:45:12.677Z,98530.81
2022-10-12T03:47:40.000Z,98523.41
2022-10-12T03:50:07.603Z,98528.16
2022-10-12T03:52:34.434Z,98525.31
2022-10-12T03:55:02.669Z,98528.56
2022-10-12T03:57:29.402Z,98518.50
2022-10-12T03:59:56.023Z,98516.84
2022-10-12T04:02:22.881Z,98522.81
2022-10-12T04:04:49.784Z,98524.25
2022-10-12T04:07:16.645Z,98529.81
2022-10-12T04:09:43.505Z,98531.03
2022-10-12T04:12:11.692Z,98524.28
2022-10-12T04:14:38.385Z,98519.19
2022-10-12T04:17:05.073Z,98527.81
2022-10-12T04:19:31.822Z,98523.06
2022-10-12T04:21:58.731Z,98521.00
2022-10-12T04:24:25.530Z,98527.97
2022-10-12T04:26:52.136Z,98528.78
2022-10-12T04:29:20.385Z,98526.91
2022-10-12T04:31:47.029Z,98531.69
2022-10-12T04:34:13.849Z,98524.28
2022-10-12T04:36:40.803Z,98524.28
2022-10-12T04:39:07.772Z,98526.38
2022-10-12T04:41:34.694Z,98523.50
2022-10-12T04:44:01.391Z,98527.19
2022-10-12T04:46:29.519Z,98523.09
2022-10-12T04:48:56.231Z,98533.59
2022-10-12T04:51:23.125Z,98528.44
2022-10-12T04:53:49.878Z,98532.34
2022-10-12T04:56:16.668Z,98532.75
2022-10-12T04:58:43.888Z,98527.19
2022-10-12T05:01:11.496Z,98530.69
2022-10-12T05:03:42.082Z,98534.16
2022-10-12T05:06:09.182Z,98529.28
2022-10-12T05:08:35.839Z,98527.63
2022-10-12T05:11:02.667Z,98533.97
2022-10-12T05:13:30.149Z,98529.06
2022-10-12T05:15:56.884Z,98526.00
2022-10-12T05:18:24.249Z,98529.28
2022-10-12T05:20:56.844Z,98524.34
2022-10-12T05:23:24.467Z,98527.63
2022-10-12T05:25:52.182Z,98523.31
2022-10-12T05:28:18.951Z,98526.63
2022-10-12T05:30:53.371Z,98524.97
2022-10-12T05:33:20.041Z,98523.13
2022-10-12T05:35:52.117Z,98523.13
2022-10-12T05:38:22.750Z,98523.31
2022-10-12T05:40:49.457Z,98522.13
2022-10-12T05:43:16.555Z,98523.53
2022-10-12T05:45:43.310Z,98520.66
2022-10-12T05:48:09.962Z,98516.75
2022-10-12T05:50:36.812Z,98522.91
2022-10-12T05:53:03.611Z,98515.50
2022-10-12T05:55:31.678Z,98522.88
2022-10-12T05:57:58.487Z,98524.09
2022-10-12T06:00:25.215Z,98526.94
2022-10-12T06:02:52.412Z,98531.00
2022-10-12T06:05:19.430Z,98521.34
2022-10-12T06:07:46.071Z,98526.03
2022-10-12T06:10:12.879Z,98522.34
2022-10-12T06:12:41.232Z,98525.19
2022-10-12T06:15:09.566Z,98521.25
2022-10-12T06:17:36.277Z,98516.25
2022-10-12T06:20:03.147Z,98516.63
2022-10-12T06:22:29.838Z,98515.13
2022-10-12T06:24:56.669Z,98511.22
2022-10-12T06:27:24.056Z,98507.03
2022-10-12T06:29:52.255Z,98502.34
2022-10-12T06:32:18.972Z,98502.34
2022-10-12T06:34:46.557Z,98509.41
2022-10-12T06:37:36.978Z,98506.66
2022-10-12T06:40:00.181Z,98511.06
2022-10-12T06:42:26.864Z,98511.88
2022-10-12T06:44:55.139Z,98512.69
2022-10-12T06:47:22.353Z,98517.25
2022-10-12T06:49:49.238Z,98514.81
2022-10-12T06:52:15.946Z,98509.94
2022-10-12T06:54:42.753Z,98521.50
2022-10-12T06:57:09.507Z,98513.91
2022-10-12T06:59:36.313Z,98517.28
2022-10-12T07:02:04.895Z,98518.94
2022-10-12T07:04:31.859Z,98514.94
2022-10-12T07:06:58.825Z,98526.25
2022-10-12T07:09:25.943Z,98526.28
2022-10-12T07:11:52.737Z,98517.13
2022-10-12T07:14:19.577Z,98518.34
2022-10-12T07:16:49.538Z,98520.72
2022-10-12T07:19:21.071Z,98514.78
2022-10-12T07:21:47.947Z,98519.47
2022-10-12T07:24:15.088Z,98521.91
2022-10-12T07:26:42.303Z,98519.28
2022-10-12T07:29:09.875Z,98520.44
2022-10-12T07:31:37.546Z,98514.63
2022-10-12T07:34:04.236Z,98524.44
2022-10-12T07:36:57.551Z,98521.84
2022-10-12T07:39:19.982Z,98528.84
2022-10-12T07:41:46.603Z,98518.16
2022-10-12T07:44:13.638Z,98526.28
2022-10-12T07:46:40.461Z,98529.22
2022-10-12T07:49:07.470Z,98526.31
2022-10-12T07:51:36.932Z,98528.31
2022-10-12T07:54:03.907Z,98527.53
2022-10-12T07:56:30.890Z,98527.56
2022-10-12T07:58:58.092Z,98539.88
2022-10-12T08:01:27.449Z,98534.38
2022-10-12T08:04:00.284Z,98534.63
2022-10-12T08:06:29.889Z,98529.72
2022-10-12T08:08:58.946Z,98522.28
2022-10-12T08:11:25.810Z,98527.25
2022-10-12T08:13:52.630Z,98523.50
2022-10-12T08:16:21.322Z,98524.00
2022-10-12T08:18:47.998Z,98524.53
2022-10-12T08:21:15.740Z,98530.72
2022-10-12T08:23:44.686Z,98532.19
2022-10-12T08:26:13.930Z,98523.34
2022-10-12T08:28:40.918Z,98528.16
2022-10-12T08:31:09.451Z,62402.38
2022-10-12T08:33:36.178Z,98520.59
2022-10-12T08:36:04.048Z,98521.78
2022-10-12T08:38:31.525Z,98524.09
2022-10-12T08:41:07.298Z,98521.28
2022-10-12T08:43:47.696Z,98527.44
2022-10-12T08:46:14.612Z,98517.34
2022-10-12T08:48:47.194Z,98529.22
2022-10-12T08:51:19.100Z,98525.47
2022-10-12T08:53:52.194Z,98525.25
2022-10-12T08:56:20.429Z,98531.03
2022-10-12T08:58:50.901Z,98528.31
2022-10-12T09:01:26.049Z,98527.25
2022-10-12T09:04:04.190Z,98525.91
2022-10-12T09:06:38.644Z,98524.66
2022-10-12T09:09:19.634Z,98523.34
2022-10-12T09:12:01.416Z,62402.38
2022-10-12T09:14:32.941Z,62402.38
2022-10-12T09:17:02.351Z,62402.38
2022-10-12T09:19:35.733Z,62402.38
2022-10-12T09:22:04.415Z,62402.38
2022-10-12T09:24:35.865Z,62402.38
2022-10-12T09:27:14.117Z,62402.38
2022-10-12T09:29:47.295Z,62402.38
2022-10-12T09:32:36.085Z,62402.38
2022-10-12T09:35:04.334Z,62402.38
2022-10-12T09:37:35.949Z,62402.38
2022-10-12T09:40:03.257Z,62402.38
2022-10-12T09:42:30.711Z,62402.38
2022-10-12T09:45:06.112Z,98502.53
2022-10-12T09:47:33.831Z,98503.41
2022-10-12T09:50:02.522Z,98498.44
2022-10-12T09:52:39.811Z,62402.38
2022-10-12T09:55:20.549Z,98492.84
2022-10-12T09:57:54.614Z,98490.78
2022-10-12T10:00:27.937Z,98488.22
2022-10-12T10:02:55.458Z,98488.00
2022-10-12T10:05:34.064Z,98490.75
2022-10-12T10:08:19.852Z,98486.66
2022-10-12T10:10:49.927Z,98489.50
2022-10-12T10:13:17.367Z,62402.38
2022-10-12T10:15:48.793Z,62402.38
2022-10-12T10:18:22.347Z,62402.38
2022-10-12T10:20:53.124Z,62402.38
2022-10-12T10:23:25.939Z,62402.38
2022-10-12T10:25:57.891Z,62402.38
2022-10-12T10:28:28.239Z,62402.38
2022-10-12T10:31:02.412Z,62402.38
2022-10-12T10:33:30.315Z,62402.38
2022-10-12T10:36:04.155Z,62402.38
2022-10-12T10:38:33.161Z,62402.38
2022-10-12T10:41:05.149Z,62402.38
2022-10-12T10:43:32.257Z,62402.38
2022-10-12T10:46:02.561Z,62402.38
2022-10-12T10:48:34.941Z,62402.38
2022-10-12T10:51:04.701Z,62402.38
2022-10-12T10:53:42.297Z,62402.38
2022-10-12T10:56:14.201Z,62402.38
2022-10-12T10:58:45.616Z,62402.38
2022-10-12T11:01:21.517Z,62402.38
2022-10-12T11:03:58.532Z,62402.38
2022-10-12T11:06:35.403Z,62402.38
2022-10-12T11:09:07.034Z,62402.38
2022-10-12T11:11:37.176Z,62402.38
2022-10-12T11:14:12.076Z,62402.38
2022-10-12T11:16:45.682Z,62402.38
2022-10-12T11:19:24.281Z,62402.38
2022-10-12T11:21:54.869Z,62402.38
2022-10-12T11:24:26.928Z,62402.38
2022-10-12T11:27:02.822Z,62402.38
2022-10-12T11:29:29.751Z,62402.38
2022-10-12T11:32:05.589Z,62402.38
2022-10-12T11:34:43.228Z,62402.38
2022-10-12T11:37:19.882Z,62402.38
2022-10-12T11:39:50.326Z,62402.38
2022-10-12T11:42:27.634Z,62402.38
2022-10-12T11:44:55.037Z,62402.38
2022-10-12T11:47:32.398Z,62402.38
2022-10-12T11:50:03.475Z,62402.38
2022-10-12T11:52:37.373Z,62402.38
2022-10-12T11:55:25.186Z,62402.38
2022-10-12T11:57:54.618Z,62402.38
2022-10-12T12:00:27.021Z,62402.38
2022-10-12T12:03:01.436Z,62402.38
2022-10-12T12:05:31.968Z,62402.38
2022-10-12T12:07:58.442Z,62402.38
2022-10-12T12:10:58.189Z,62402.38
2022-10-12T12:13:27.020Z,62402.38
2022-10-12T12:16:12.382Z,62402.38
2022-10-12T12:18:54.757Z,62402.38
2022-10-12T12:21:22.722Z,62402.38
2022-10-12T12:23:52.456Z,62402.38
2022-10-12T12:26:20.243Z,62402.38
2022-10-12T12:28:47.895Z,62402.38
2022-10-12T12:31:16.350Z,62402.38
2022-10-12T12:33:49.100Z,62402.38
2022-10-12T12:36:25.685Z,62402.38
2022-10-12T12:38:53.772Z,62402.38
2022-10-12T12:41:26.806Z,62402.38
2022-10-12T12:43:57.725Z,62402.38
2022-10-12T12:46:25.953Z,62402.38
2022-10-12T12:48:56.834Z,62402.38
2022-10-12T12:51:25.281Z,62402.38
2022-10-12T12:53:57.724Z,62402.38
2022-10-12T12:56:31.147Z,62402.38
2022-10-12T12:59:03.987Z,62402.38
2022-10-12T13:01:46.357Z,62402.38
2022-10-12T13:04:39.597Z,62402.38
2022-10-12T13:07:27.410Z,62402.38
2022-10-12T13:10:05.886Z,62402.38
2022-10-12T13:12:56.259Z,62402.38
2022-10-12T13:15:30.043Z,62402.38
2022-10-12T13:18:28.394Z,62402.38
2022-10-12T13:21:00.153Z,62402.38
2022-10-12T13:23:28.200Z,62402.38
2022-10-12T13:25:58.174Z,62402.38
2022-10-12T13:28:28.594Z,62402.38
2022-10-12T13:30:59.552Z,62402.38
2022-10-12T13:33:32.319Z,62402.38
2022-10-12T13:36:02.979Z,62402.38
2022-10-12T13:38:32.045Z,62402.38
2022-10-12T13:41:04.011Z,62402.38
2022-10-12T13:43:33.379Z,62402.38
2022-10-12T13:46:01.380Z,62402.38
2022-10-12T13:48:57.590Z,62402.38
2022-10-12T13:51:23.338Z,62402.38
2022-10-12T13:53:50.331Z,62402.38
2022-10-12T13:56:19.902Z,62402.38
2022-10-12T13:58:46.696Z,62402.38
2022-10-12T14:01:14.208Z,62402.38
2022-10-12T14:03:42.422Z,62402.38
2022-10-12T14:06:23.231Z,62402.38
2022-10-12T14:09:06.604Z,62402.38
2022-10-12T14:11:36.076Z,62402.38
2022-10-12T14:14:03.302Z,62402.38
2022-10-12T14:16:29.994Z,62402.38
2022-10-12T14:19:17.283Z,62402.38
2022-10-12T14:21:46.086Z,62402.38
2022-10-12T14:24:16.610Z,62402.38
2022-10-12T14:26:52.186Z,62402.38
2022-10-12T14:29:27.876Z,62402.38
2022-10-12T14:31:56.555Z,62402.38
2022-10-12T14:34:39.015Z,62402.38
2022-10-12T14:37:07.356Z,62402.38
2022-10-12T14:39:34.699Z,62402.38
2022-10-12T14:42:05.489Z,62402.38
2022-10-12T14:44:41.780Z,62402.38
2022-10-12T14:47:13.232Z,62402.38
2022-10-12T14:49:44.202Z,62402.38
2022-10-12T14:52:17.856Z,62402.38
2022-10-12T14:54:44.545Z,62402.38
2022-10-12T14:57:14.122Z,62402.38
2022-10-12T14:59:41.478Z,62402.38
2022-10-12T15:02:13.312Z,62402.38
2022-10-12T15:04:40.980Z,62402.38
2022-10-12T15:07:13.286Z,62402.38
2022-10-12T15:09:40.232Z,62402.38
2022-10-12T15:12:06.778Z,62402.38
2022-10-12T15:14:36.251Z,62402.38
2022-10-12T15:17:03.631Z,62402.38
2022-10-12T15:19:30.173Z,62402.38
2022-10-12T15:21:56.720Z,62402.38
2022-10-12T15:24:24.751Z,62402.38
2022-10-12T15:26:52.585Z,62402.38
2022-10-12T15:29:19.288Z,62402.38
2022-10-12T15:31:51.069Z,62402.38
2022-10-12T15:34:19.040Z,62402.38
2022-10-12T15:36:45.938Z,62402.38
2022-10-12T15:39:13.448Z,62402.38
2022-10-12T15:41:40.077Z,62402.38
2022-10-12T15:44:07.254Z,62402.38
2022-10-12T15:46:34.038Z,62402.38
2022-10-12T15:49:02.371Z,62402.38
2022-10-12T15:51:29.115Z,62402.38
2022-10-12T15:53:56.342Z,62402.38
2022-10-12T15:56:23.561Z,62402.38
2022-10-12T15:58:50.603Z,62402.38
2022-10-12T16:01:18.672Z,62402.38
2022-10-12T16:03:52.251Z,62402.38
2022-10-12T16:06:25.847Z,62402.38
2022-10-12T16:08:53.140Z,62402.38
2022-10-12T16:11:20.539Z,62402.38
2022-10-12T16:13:53.851Z,62402.38
2022-10-12T16:16:23.437Z,62402.38
2022-10-12T16:18:52.153Z,62402.38
2022-10-12T16:21:20.529Z,62402.38
2022-10-12T16:23:47.118Z,62402.38
2022-10-12T16:26:15.002Z,62402.38
2022-10-12T16:28:42.353Z,62402.38
2022-10-12T16:31:10.878Z,62402.38
2022-10-12T16:33:38.688Z,62402.38
2022-10-12T16:36:10.039Z,62402.38
2022-10-12T16:38:37.882Z,62402.38
2022-10-12T16:41:08.286Z,62402.38
2022-10-12T16:43:35.611Z,62402.38
2022-10-12T16:46:02.252Z,62402.38
2022-10-12T16:48:29.301Z,62402.38
2022-10-12T16:50:56.295Z,62402.38
2022-10-12T16:53:22.793Z,62402.38
2022-10-12T16:55:51.362Z,62402.38
2022-10-12T16:58:18.234Z,62402.38
2022-10-12T17:00:45.905Z,62402.38
2022-10-12T17:03:14.312Z,62402.38
2022-10-12T17:05:42.081Z,62402.38
2022-10-12T17:08:14.161Z,62402.38
2022-10-12T17:10:42.574Z,62402.38
2022-10-12T17:13:10.868Z,62402.38
2022-10-12T17:15:39.238Z,62402.38
2022-10-12T17:18:05.826Z,62402.38
2022-10-12T17:20:32.337Z,62402.38
2022-10-12T17:22:58.889Z,62402.38
2022-10-12T17:25:25.500Z,62402.38
2022-10-12T17:27:52.386Z,62402.38
2022-10-12T17:30:20.531Z,62402.38
2022-10-12T17:32:47.048Z,62402.38
2022-10-12T17:35:13.837Z,62402.38
2022-10-12T17:37:40.812Z,62402.38
2022-10-12T17:40:09.364Z,62402.38
2022-10-12T17:42:35.873Z,62402.38
2022-10-12T17:45:02.606Z,62402.38
2022-10-12T17:47:32.057Z,62402.38
2022-10-12T17:49:58.926Z,62402.38
2022-10-12T17:52:25.573Z,62402.38
2022-10-12T17:57:36.347Z,62402.38
2022-10-12T18:00:03.296Z,62402.38
2022-10-12T18:02:31.448Z,62402.38
2022-10-12T18:04:58.199Z,62402.38
2022-10-12T18:07:25.315Z,62402.38
2022-10-12T18:09:51.898Z,62402.38
2022-10-12T18:12:18.690Z,62402.38
2022-10-12T18:14:45.511Z,62402.38
2022-10-12T18:17:12.063Z,62402.38
2022-10-12T18:19:39.920Z,62402.38
2022-10-12T18:22:06.644Z,62402.38
2022-10-12T18:24:33.603Z,62402.38
2022-10-12T18:27:00.212Z,62402.38
2022-10-12T18:29:26.914Z,62402.38
2022-10-12T18:31:54.118Z,62402.38
2022-10-12T18:34:20.754Z,62402.38
2022-10-12T18:36:49.069Z,62402.38
2022-10-12T18:39:16.483Z,62402.38
2022-10-12T18:41:43.556Z,62402.38
2022-10-12T18:44:15.076Z,62402.38
2022-10-12T18:46:42.070Z,62402.38
2022-10-12T18:49:10.535Z,62402.38
2022-10-12T18:51:40.013Z,62402.38
2022-10-12T18:54:11.599Z,98300.88
2022-10-12T18:56:38.665Z,98303.69
2022-10-12T18:59:06.730Z,98306.06
2022-10-12T19:01:34.503Z,98306.34
2022-10-12T19:04:02.467Z,98314.22
2022-10-12T19:06:31.906Z,98314.69
2022-10-12T19:08:59.852Z,98318.34
2022-10-12T19:11:29.750Z,98316.63
2022-10-12T19:13:59.238Z,98316.03
2022-10-12T19:16:26.733Z,98323.81
2022-10-12T19:18:56.732Z,98325.59
2022-10-12T19:21:23.836Z,98322.53
2022-10-12T19:23:50.733Z,98315.75
2022-10-12T19:26:19.055Z,98319.72
2022-10-12T19:28:47.631Z,98316.72
2022-10-12T19:31:16.766Z,98305.09
2022-10-12T19:33:45.239Z,98313.69
2022-10-12T19:36:13.834Z,98318.28
2022-10-12T19:38:42.584Z,98323.44
2022-10-12T19:41:10.786Z,98328.13
2022-10-12T19:43:38.953Z,98326.75
2022-10-12T19:46:09.259Z,98334.06
2022-10-12T19:48:38.031Z,98333.75
2022-10-12T19:51:08.398Z,98321.53
2022-10-12T19:53:35.481Z,98318.00
2022-10-12T19:56:05.557Z,98324.75
2022-10-12T19:58:34.194Z,98318.00
2022-10-12T20:01:02.343Z,98324.63
2022-10-12T20:03:31.145Z,98317.31
2022-10-12T20:05:58.177Z,98318.38
2022-10-12T20:08:25.868Z,98320.00
2022-10-12T20:10:54.407Z,98316.53
2022-10-12T20:13:22.399Z,98309.00
2022-10-12T20:15:52.065Z,98322.47
2022-10-12T20:18:19.354Z,98315.16
2022-10-12T20:20:47.961Z,98315.69
2022-10-12T20:23:15.707Z,98301.13
2022-10-12T20:25:42.886Z,98321.56
2022-10-12T20:28:10.349Z,98316.16
2022-10-12T20:30:38.047Z,98317.47
2022-10-12T20:33:05.129Z,98310.53
2022-10-12T20:35:31.988Z,62402.38
2022-10-12T20:38:00.566Z,98326.09
2022-10-12T20:40:27.668Z,98334.78
2022-10-12T20:42:54.649Z,98335.25
2022-10-12T20:45:22.092Z,98320.16
2022-10-12T20:47:49.011Z,98320.66
2022-10-12T20:50:15.940Z,98321.03
2022-10-12T20:52:43.298Z,98317.88
2022-10-12T20:55:13.349Z,98324.50
2022-10-12T20:57:41.274Z,98325.22
2022-10-12T21:00:08.859Z,98318.09
2022-10-12T21:02:38.484Z,98319.59
2022-10-12T21:05:06.695Z,98315.22
2022-10-12T21:07:34.789Z,98317.88
2022-10-12T21:10:01.722Z,62402.38
2022-10-12T21:12:29.789Z,98329.69
2022-10-12T21:14:56.558Z,98325.81
2022-10-12T21:17:23.317Z,98321.91
2022-10-12T21:19:51.766Z,98328.03
2022-10-12T21:22:18.822Z,98321.88
2022-10-12T21:24:46.319Z,98321.69
2022-10-12T21:27:13.243Z,98319.19
2022-10-12T21:29:41.215Z,98313.13
2022-10-12T21:32:08.508Z,98310.75
2022-10-12T21:34:35.610Z,98312.09
2022-10-12T21:37:02.257Z,98305.38
2022-10-12T21:39:29.413Z,98303.13
2022-10-12T21:41:56.320Z,98306.13
2022-10-12T21:44:23.174Z,98308.19
2022-10-12T21:46:52.681Z,98307.09
2022-10-12T21:49:19.337Z,98302.66
2022-10-12T21:51:46.058Z,98301.09
2022-10-12T21:54:12.747Z,98290.66
2022-10-12T21:56:39.576Z,98304.22
2022-10-12T21:59:06.783Z,98291.22
2022-10-12T22:01:35.648Z,98292.84
2022-10-12T22:04:06.000Z,98293.09
2022-10-12T22:06:32.828Z,98290.47
2022-10-12T22:09:01.430Z,98279.16
2022-10-12T22:11:31.090Z,98292.13
2022-10-12T22:13:59.819Z,98283.13
2022-10-12T22:16:28.046Z,98286.50
2022-10-12T22:18:56.791Z,62402.38
2022-10-12T22:21:25.094Z,98296.78
2022-10-12T22:23:52.790Z,98295.34
2022-10-12T22:26:21.927Z,98299.28
2022-10-12T22:28:49.614Z,98299.59
2022-10-12T22:31:18.970Z,62402.38
2022-10-12T22:33:45.711Z,62402.38
2022-10-12T22:36:13.348Z,62402.38
2022-10-12T22:38:41.985Z,62402.38
2022-10-12T22:41:11.604Z,62402.38
2022-10-12T22:43:38.857Z,62402.38
2022-10-12T22:46:06.036Z,62402.38
2022-10-12T22:48:32.931Z,62402.38
2022-10-12T22:50:59.569Z,62402.38
2022-10-12T22:53:26.427Z,62402.38
2022-10-12T22:55:58.594Z,62402.38
2022-10-12T22:58:25.250Z,62402.38
2022-10-12T23:00:51.895Z,98285.47
2022-10-12T23:03:18.700Z,98286.25
2022-10-12T23:05:48.319Z,98285.28
2022-10-12T23:08:15.149Z,98292.28
2022-10-12T23:10:41.858Z,98288.81
2022-10-12T23:13:09.925Z,98295.16
2022-10-12T23:15:36.585Z,98295.03
2022-10-12T23:18:04.159Z,98294.00
2022-10-12T23:20:30.890Z,98296.47
2022-10-12T23:22:57.579Z,98293.66
2022-10-12T23:25:24.264Z,98293.34
2022-10-12T23:27:50.984Z,98284.41
2022-10-12T23:30:18.984Z,98284.69
2022-10-12T23:32:45.589Z,98288.78
2022-10-12T23:35:12.235Z,98289.84
2022-10-12T23:37:43.366Z,98278.78
2022-10-12T23:40:12.111Z,98276.81
2022-10-12T23:42:38.806Z,98271.91
2022-10-12T23:45:06.118Z,98276.22
2022-10-12T23:47:34.475Z,98280.94
2022-10-12T23:50:01.097Z,98277.47
2022-10-12T23:52:27.788Z,98280.16
2022-10-12T23:54:54.444Z,98286.00
2022-10-12T23:57:45.228Z,98282.00
